Chestnut Dale, North Carolina
Current Conditions -  °F | °C
As of 1:50 AM on Saturday 25 Oct 2014 (Local Time) from KTNB Reporting Station
Clear Clear  
Wind Chill: 43°   Ceiling: Unl
Heat Index: 47°   Visibility: 10mi
Dew Point: 35°   Wind: 8mph
Humidity: 63%   Direction: 290°WNW
Pressure: 30.07"   Gusts: NA
Location:  36.0227°N, 81.9499°W
Report Text: KTNB 250550Z AUTO 29007KT 10SM CLR 08/02 A3007 RMK AO2 T00820016 10110 20055 401890015
Loading
Personal Weather Stations






























Interactive Weather Map New forecast layout! Learn more

10-Day Weather Forecast

Advertisements
Track Severe Weather on mobile